createdAt,value
2023-06-30T00:00:18.604Z,2.70
2023-06-30T00:02:49.226Z,3.65
2023-06-30T00:05:16.326Z,7.28
2023-06-30T00:07:46.727Z,5.28
2023-06-30T00:10:13.547Z,4.35
2023-06-30T00:12:40.313Z,4.25
2023-06-30T00:15:07.361Z,5.28
2023-06-30T00:17:34.264Z,7.53
2023-06-30T00:20:01.236Z,3.25
2023-06-30T00:22:28.152Z,4.07
2023-06-30T00:24:56.828Z,4.10
2023-06-30T00:27:24.150Z,3.28
2023-06-30T00:29:50.998Z,4.53
2023-06-30T00:32:20.149Z,3.55
2023-06-30T00:34:47.114Z,5.18
2023-06-30T00:37:15.433Z,3.70
2023-06-30T00:39:42.288Z,3.88
2023-06-30T00:42:09.567Z,5.80
2023-06-30T00:44:36.622Z,5.00
2023-06-30T00:47:03.932Z,3.63
2023-06-30T00:49:32.352Z,6.10
2023-06-30T00:52:01.124Z,3.63
2023-06-30T00:54:28.615Z,3.75
2023-06-30T00:56:55.843Z,4.82
2023-06-30T00:59:23.128Z,4.07
2023-06-30T01:01:59.947Z,3.50
2023-06-30T01:04:32.833Z,5.60
2023-06-30T01:07:07.924Z,4.47
2023-06-30T01:09:39.992Z,4.85
2023-06-30T01:12:08.705Z,6.38
2023-06-30T01:14:37.596Z,7.15
2023-06-30T01:17:06.967Z,7.97
2023-06-30T01:19:45.947Z,6.45
2023-06-30T01:22:20.816Z,8.27
2023-06-30T01:24:50.490Z,6.57
2023-06-30T01:27:17.609Z,10.43
2023-06-30T01:29:44.896Z,10.20
2023-06-30T01:32:18.081Z,5.45
2023-06-30T01:34:46.381Z,4.75
2023-06-30T01:37:14.790Z,7.47
2023-06-30T01:39:41.824Z,6.65
2023-06-30T01:42:09.545Z,6.78
2023-06-30T01:44:37.626Z,7.60
2023-06-30T01:47:05.894Z,7.32
2023-06-30T01:49:34.418Z,7.68
2023-06-30T01:52:02.404Z,8.57
2023-06-30T01:54:29.598Z,8.60
2023-06-30T01:56:56.518Z,9.52
2023-06-30T01:59:23.692Z,9.82
2023-06-30T02:01:50.551Z,9.50
2023-06-30T02:04:17.703Z,11.57
2023-06-30T02:06:47.785Z,8.93
2023-06-30T02:09:14.649Z,11.75
2023-06-30T02:11:41.463Z,11.70
2023-06-30T02:14:08.229Z,8.95
2023-06-30T02:16:35.006Z,9.27
2023-06-30T02:19:01.821Z,10.13
2023-06-30T02:21:28.608Z,11.02
2023-06-30T02:23:55.579Z,9.05
2023-06-30T02:26:22.425Z,12.27
2023-06-30T02:28:50.054Z,10.52
2023-06-30T02:31:17.769Z,11.80
2023-06-30T02:33:44.833Z,10.13
2023-06-30T02:36:11.801Z,12.27
2023-06-30T02:38:38.579Z,10.40
2023-06-30T02:41:05.387Z,11.38
2023-06-30T02:43:32.136Z,11.70
2023-06-30T02:45:59.498Z,9.68
2023-06-30T02:48:27.994Z,11.32
2023-06-30T02:50:54.965Z,12.55
2023-06-30T02:53:21.798Z,9.80
2023-06-30T02:55:49.158Z,8.63
2023-06-30T02:58:16.370Z,9.15
2023-06-30T03:00:43.164Z,12.82
2023-06-30T03:03:11.054Z,12.60
2023-06-30T03:05:38.879Z,11.82
2023-06-30T03:08:07.895Z,14.57
2023-06-30T03:10:34.754Z,16.90
2023-06-30T03:13:01.565Z,12.25
2023-06-30T03:15:29.076Z,14.05
2023-06-30T03:17:56.753Z,14.02
2023-06-30T03:20:24.755Z,12.45
2023-06-30T03:22:54.260Z,13.25
2023-06-30T03:25:21.228Z,13.75
2023-06-30T03:27:48.520Z,14.27
2023-06-30T03:30:17.325Z,15.90
2023-06-30T03:32:46.731Z,15.40
2023-06-30T03:35:16.212Z,13.98
2023-06-30T03:37:43.004Z,14.18
2023-06-30T03:40:10.995Z,15.10
2023-06-30T03:42:38.202Z,16.52
2023-06-30T03:45:05.913Z,15.23
2023-06-30T03:47:33.941Z,15.93
2023-06-30T03:50:00.912Z,17.98
2023-06-30T03:52:27.804Z,17.45
2023-06-30T03:54:54.962Z,20.40
2023-06-30T03:57:21.795Z,18.80
2023-06-30T03:59:48.620Z,20.25
2023-06-30T04:02:15.507Z,17.17
2023-06-30T04:04:42.350Z,20.73
2023-06-30T04:07:09.317Z,18.70
2023-06-30T04:09:36.484Z,23.38
2023-06-30T04:12:03.754Z,21.63
2023-06-30T04:14:30.659Z,17.15
2023-06-30T04:16:59.305Z,22.27
2023-06-30T04:19:26.420Z,19.67
2023-06-30T04:21:53.272Z,20.98
2023-06-30T04:24:20.888Z,20.00
2023-06-30T04:26:47.656Z,22.42
2023-06-30T04:29:16.514Z,22.33
2023-06-30T04:31:44.090Z,20.88
2023-06-30T04:34:11.010Z,25.85
2023-06-30T04:36:37.820Z,23.17
2023-06-30T04:39:04.738Z,22.92
2023-06-30T04:41:31.665Z,22.63
2023-06-30T04:43:58.567Z,23.80
2023-06-30T04:46:26.601Z,20.90
2023-06-30T04:48:54.286Z,21.48
2023-06-30T04:51:21.110Z,26.73
2023-06-30T04:53:47.920Z,23.50
2023-06-30T04:56:14.714Z,23.17
2023-06-30T04:58:41.466Z,22.23
2023-06-30T05:01:08.282Z,21.45
2023-06-30T05:03:35.222Z,20.65
2023-06-30T05:06:02.041Z,23.35
2023-06-30T05:08:28.906Z,21.05
2023-06-30T05:10:55.709Z,24.65
2023-06-30T05:13:22.522Z,22.75
2023-06-30T05:15:49.763Z,25.13
2023-06-30T05:18:16.851Z,22.20
2023-06-30T05:20:43.752Z,21.73
2023-06-30T05:23:10.540Z,26.95
2023-06-30T05:25:38.071Z,25.25
2023-06-30T05:28:05.036Z,22.83
2023-06-30T05:30:31.882Z,24.10
2023-06-30T05:32:58.758Z,22.80
2023-06-30T05:35:25.536Z,23.05
2023-06-30T05:37:52.409Z,22.50
2023-06-30T05:40:19.343Z,25.13
2023-06-30T05:42:46.138Z,25.33
2023-06-30T05:45:12.932Z,24.70
2023-06-30T05:47:39.791Z,24.80
2023-06-30T05:50:07.293Z,26.13
2023-06-30T05:52:34.151Z,23.77
2023-06-30T05:55:00.989Z,26.08
2023-06-30T05:57:30.695Z,24.52
2023-06-30T05:59:57.447Z,23.85
2023-06-30T06:02:24.630Z,24.40
2023-06-30T06:04:52.928Z,20.45
2023-06-30T06:07:20.273Z,23.40
2023-06-30T06:09:47.203Z,22.52
2023-06-30T06:12:14.006Z,22.63
2023-06-30T06:14:41.092Z,23.98
2023-06-30T06:17:08.115Z,21.73
2023-06-30T06:19:35.077Z,24.83
2023-06-30T06:22:01.954Z,22.35
2023-06-30T06:24:28.994Z,20.48
2023-06-30T06:26:55.810Z,20.20
2023-06-30T06:29:25.460Z,22.33
2023-06-30T06:31:55.087Z,20.73
2023-06-30T06:34:23.117Z,20.33
2023-06-30T06:36:49.981Z,21.13
2023-06-30T06:39:16.849Z,21.42
2023-06-30T06:41:43.705Z,22.90
2023-06-30T06:44:16.201Z,22.70
2023-06-30T06:46:44.647Z,20.52
2023-06-30T06:49:11.821Z,22.02
2023-06-30T06:51:38.677Z,22.63
2023-06-30T06:54:05.464Z,21.65
2023-06-30T06:56:32.465Z,22.58
2023-06-30T06:58:59.483Z,22.30
2023-06-30T07:01:26.310Z,21.77
2023-06-30T07:03:53.203Z,22.02
2023-06-30T07:06:22.485Z,25.77
2023-06-30T07:08:50.200Z,24.30
2023-06-30T07:11:19.168Z,22.30
2023-06-30T07:13:46.003Z,21.63
2023-06-30T07:16:12.912Z,22.95
2023-06-30T07:18:39.749Z,22.92
2023-06-30T07:21:06.954Z,22.60
2023-06-30T07:23:34.190Z,21.55
2023-06-30T07:26:01.063Z,25.55
2023-06-30T07:28:27.932Z,22.23
2023-06-30T07:30:54.786Z,18.23
2023-06-30T07:33:21.638Z,23.38
2023-06-30T07:35:48.947Z,20.42
2023-06-30T07:38:16.098Z,20.92
2023-06-30T07:43:12.665Z,22.75
2023-06-30T07:45:39.518Z,21.50
2023-06-30T07:48:06.679Z,21.33
2023-06-30T07:50:33.617Z,20.63
2023-06-30T07:53:02.479Z,22.05
2023-06-30T07:55:29.395Z,20.58
2023-06-30T07:57:56.302Z,20.30
2023-06-30T08:00:29.924Z,21.15
2023-06-30T08:02:56.919Z,25.75
2023-06-30T08:05:24.256Z,21.73
2023-06-30T08:07:51.835Z,22.20
2023-06-30T08:10:19.900Z,23.02
2023-06-30T08:12:46.985Z,23.50
2023-06-30T08:15:13.953Z,23.35
2023-06-30T08:17:56.547Z,23.92
2023-06-30T08:20:28.731Z,22.88
2023-06-30T08:22:55.966Z,25.98
2023-06-30T08:25:24.507Z,24.85
2023-06-30T08:27:52.443Z,23.50
2023-06-30T08:30:22.053Z,23.33
2023-06-30T08:32:50.938Z,24.15
2023-06-30T08:35:17.866Z,22.98
2023-06-30T08:37:44.827Z,22.08
2023-06-30T08:40:12.131Z,25.67
2023-06-30T08:42:44.061Z,25.10
2023-06-30T08:45:13.731Z,23.83
2023-06-30T08:47:41.018Z,24.10
2023-06-30T08:50:09.251Z,23.38
2023-06-30T08:52:36.368Z,23.27
2023-06-30T08:55:04.185Z,22.98
2023-06-30T08:57:32.635Z,25.77
2023-06-30T08:59:59.404Z,24.80
2023-06-30T09:02:27.541Z,21.42
2023-06-30T09:04:56.051Z,22.10
2023-06-30T09:07:39.972Z,24.85
2023-06-30T09:10:10.400Z,23.63
2023-06-30T09:12:40.464Z,26.20
2023-06-30T09:15:10.219Z,22.02
2023-06-30T09:17:37.137Z,22.63
2023-06-30T09:20:04.209Z,21.77
2023-06-30T09:22:52.416Z,22.42
2023-06-30T09:25:26.974Z,20.20
2023-06-30T09:27:55.024Z,19.67
2023-06-30T09:30:35.920Z,21.88
2023-06-30T09:33:03.216Z,18.55
2023-06-30T09:35:41.514Z,21.88
2023-06-30T09:38:12.086Z,21.17
2023-06-30T09:40:38.948Z,20.58
2023-06-30T09:43:06.344Z,18.17
2023-06-30T09:45:33.190Z,18.40
2023-06-30T09:48:00.216Z,19.50
2023-06-30T09:50:28.765Z,17.35
2023-06-30T09:52:55.774Z,16.77
2023-06-30T09:55:22.597Z,16.23
2023-06-30T09:57:49.319Z,14.80
2023-06-30T10:00:33.642Z,18.00
2023-06-30T10:03:07.379Z,12.52
2023-06-30T10:05:34.447Z,15.32
2023-06-30T10:08:02.468Z,15.63
2023-06-30T10:10:30.241Z,14.25
2023-06-30T10:12:59.796Z,14.95
2023-06-30T10:15:27.778Z,14.85
2023-06-30T10:17:56.327Z,13.07
2023-06-30T10:20:33.884Z,11.88
2023-06-30T10:23:06.250Z,14.45
2023-06-30T10:25:37.650Z,11.82
2023-06-30T10:28:05.916Z,14.80
2023-06-30T10:30:33.446Z,17.02
2023-06-30T10:33:00.379Z,13.43
2023-06-30T10:35:28.885Z,13.55
2023-06-30T10:37:57.241Z,18.55
2023-06-30T10:40:26.081Z,15.05
2023-06-30T10:42:55.309Z,16.80
2023-06-30T10:45:27.521Z,12.63
2023-06-30T10:47:54.418Z,14.07
2023-06-30T10:50:21.209Z,15.75
2023-06-30T10:52:55.396Z,13.65
2023-06-30T10:55:24.057Z,18.23
2023-06-30T10:57:53.009Z,15.13
2023-06-30T11:00:22.854Z,13.40
2023-06-30T11:02:58.745Z,13.10
2023-06-30T11:05:32.726Z,12.65
2023-06-30T11:08:02.243Z,17.23
2023-06-30T11:10:34.326Z,15.80
2023-06-30T11:13:10.703Z,17.92
2023-06-30T11:15:44.291Z,19.40
2023-06-30T11:18:23.270Z,14.73
2023-06-30T11:21:06.710Z,16.88
2023-06-30T11:23:37.239Z,15.32
2023-06-30T11:26:19.151Z,18.50
2023-06-30T11:28:49.760Z,17.27
2023-06-30T11:31:17.506Z,18.17
2023-06-30T11:33:45.593Z,19.83
2023-06-30T11:36:17.524Z,20.63
2023-06-30T11:38:53.513Z,21.35
2023-06-30T11:41:23.041Z,21.27
2023-06-30T11:43:55.050Z,22.75
2023-06-30T11:46:22.936Z,19.63
2023-06-30T11:48:50.624Z,23.10
2023-06-30T11:51:20.496Z,21.65
2023-06-30T11:53:48.152Z,22.85
2023-06-30T11:56:15.342Z,20.30
2023-06-30T11:58:52.580Z,22.65
2023-06-30T12:01:22.656Z,21.23
2023-06-30T12:04:19.188Z,21.63
2023-06-30T12:06:47.014Z,23.30
2023-06-30T12:09:14.408Z,23.48
2023-06-30T12:11:46.212Z,20.25
2023-06-30T12:14:16.770Z,21.77
2023-06-30T12:16:51.123Z,22.55
2023-06-30T12:19:19.611Z,23.00
2023-06-30T12:22:02.106Z,22.35
2023-06-30T12:24:36.231Z,19.73
2023-06-30T12:27:10.042Z,23.67
2023-06-30T12:29:37.864Z,21.88
2023-06-30T12:32:15.399Z,23.63
2023-06-30T12:34:42.985Z,21.52
2023-06-30T12:37:09.888Z,22.75
2023-06-30T12:39:36.833Z,21.85
2023-06-30T12:42:03.927Z,21.02
2023-06-30T12:44:31.791Z,21.25
2023-06-30T12:47:06.815Z,24.08
2023-06-30T12:49:35.165Z,20.77
2023-06-30T12:52:03.855Z,21.95
2023-06-30T12:54:31.226Z,24.20
2023-06-30T12:56:58.180Z,24.17
2023-06-30T12:59:24.946Z,22.55
2023-06-30T13:01:51.858Z,24.77
2023-06-30T13:04:18.653Z,23.83
2023-06-30T13:06:45.479Z,24.88
2023-06-30T13:09:12.326Z,23.30
2023-06-30T13:11:39.286Z,22.83
2023-06-30T13:14:06.088Z,21.60
2023-06-30T13:16:32.976Z,24.23
2023-06-30T13:19:00.114Z,23.75
2023-06-30T13:21:27.128Z,21.85
2023-06-30T13:23:54.042Z,24.02
2023-06-30T13:26:21.157Z,22.73
2023-06-30T13:28:48.567Z,22.45
2023-06-30T13:31:15.360Z,25.83
2023-06-30T13:33:42.268Z,24.77
2023-06-30T13:36:09.722Z,24.65
2023-06-30T13:38:36.575Z,22.27
2023-06-30T13:41:03.539Z,19.85
2023-06-30T13:43:30.530Z,21.83
2023-06-30T13:45:59.813Z,22.23
2023-06-30T13:48:26.657Z,17.42
2023-06-30T13:50:53.494Z,15.95
2023-06-30T13:53:20.769Z,15.63
2023-06-30T13:55:48.119Z,16.60
2023-06-30T13:58:15.115Z,16.52
2023-06-30T14:00:42.128Z,16.65
2023-06-30T14:03:09.277Z,15.38
2023-06-30T14:05:36.480Z,16.20
2023-06-30T14:08:03.348Z,18.05
2023-06-30T14:10:30.614Z,16.70
2023-06-30T14:12:57.535Z,17.27
2023-06-30T14:15:24.495Z,18.50
2023-06-30T14:17:51.453Z,17.33
2023-06-30T14:20:18.283Z,17.70
2023-06-30T14:22:45.185Z,15.68
2023-06-30T14:25:23.545Z,14.73
2023-06-30T14:27:51.485Z,14.45
2023-06-30T14:30:18.603Z,15.77
2023-06-30T14:32:47.144Z,14.73
2023-06-30T14:35:14.296Z,16.17
2023-06-30T14:37:41.115Z,15.43
2023-06-30T14:40:08.653Z,15.60
2023-06-30T14:42:35.682Z,17.40
2023-06-30T14:45:02.600Z,16.58
2023-06-30T14:47:31.120Z,14.88
2023-06-30T14:49:58.834Z,15.15
2023-06-30T14:52:26.189Z,15.90
2023-06-30T14:54:53.066Z,14.20
2023-06-30T14:57:20.097Z,14.95
2023-06-30T14:59:47.020Z,14.50
2023-06-30T15:02:15.017Z,14.82
2023-06-30T15:04:41.991Z,16.92
2023-06-30T15:07:08.839Z,16.77
2023-06-30T15:09:35.667Z,18.45
2023-06-30T15:12:02.456Z,16.48
2023-06-30T15:14:29.125Z,16.90
2023-06-30T15:16:55.909Z,18.25
2023-06-30T15:19:22.699Z,13.75
2023-06-30T15:21:50.732Z,13.75
2023-06-30T15:24:17.719Z,12.25
2023-06-30T15:26:44.917Z,14.70
2023-06-30T15:29:15.252Z,13.70
2023-06-30T15:31:42.852Z,12.88
2023-06-30T15:34:09.643Z,9.85
2023-06-30T15:36:36.443Z,10.85
2023-06-30T15:39:04.541Z,14.60
2023-06-30T15:41:31.401Z,12.18
2023-06-30T15:43:58.310Z,11.13
2023-06-30T15:46:26.371Z,13.10
2023-06-30T15:48:53.110Z,11.75
2023-06-30T15:51:21.248Z,12.63
2023-06-30T15:53:48.645Z,13.90
2023-06-30T15:56:15.732Z,14.55
2023-06-30T15:58:42.508Z,13.07
2023-06-30T16:01:09.471Z,13.70
2023-06-30T16:03:38.875Z,13.70
2023-06-30T16:06:05.959Z,14.15
2023-06-30T16:08:33.318Z,14.98
2023-06-30T16:11:00.124Z,15.45
2023-06-30T16:13:26.908Z,19.85
2023-06-30T16:15:53.910Z,16.90
2023-06-30T16:18:21.024Z,17.70
2023-06-30T16:20:47.879Z,22.80
2023-06-30T16:23:14.738Z,19.77
2023-06-30T16:25:41.582Z,18.70
2023-06-30T16:28:08.678Z,18.50
2023-06-30T16:30:37.416Z,18.50
2023-06-30T16:33:04.630Z,18.98
2023-06-30T16:35:32.307Z,19.17
2023-06-30T16:37:59.299Z,18.38
2023-06-30T16:40:26.468Z,20.13
2023-06-30T16:42:54.187Z,17.75
2023-06-30T16:45:21.188Z,18.00
2023-06-30T16:47:48.297Z,17.98
2023-06-30T16:50:16.540Z,17.63
2023-06-30T16:52:44.138Z,18.92
2023-06-30T16:55:12.350Z,17.77
2023-06-30T16:57:40.044Z,19.00
2023-06-30T17:00:09.206Z,19.67
2023-06-30T17:02:36.317Z,18.75
2023-06-30T17:05:04.060Z,16.92
2023-06-30T17:07:30.963Z,19.42
2023-06-30T17:09:57.705Z,20.48
2023-06-30T17:12:24.607Z,18.15
2023-06-30T17:14:51.491Z,21.83
2023-06-30T17:17:18.441Z,21.88
2023-06-30T17:19:45.437Z,20.58
2023-06-30T17:22:12.263Z,22.05
2023-06-30T17:24:39.099Z,24.67
2023-06-30T17:27:06.322Z,21.38
2023-06-30T17:29:33.134Z,22.15
2023-06-30T17:31:59.928Z,25.83
2023-06-30T17:34:26.715Z,23.63
2023-06-30T17:37:01.485Z,22.55
2023-06-30T17:39:28.429Z,23.92
2023-06-30T17:41:55.149Z,25.20
2023-06-30T17:44:21.977Z,25.67
2023-06-30T17:46:48.828Z,25.17
2023-06-30T17:49:29.216Z,24.85
2023-06-30T17:51:56.210Z,25.77
2023-06-30T17:54:26.664Z,26.02
2023-06-30T17:56:53.447Z,25.65
2023-06-30T17:59:20.287Z,22.38
2023-06-30T18:01:47.388Z,27.02
2023-06-30T18:04:15.059Z,24.42
2023-06-30T18:07:02.837Z,25.42
2023-06-30T18:09:30.668Z,26.20
2023-06-30T18:11:58.939Z,26.77
2023-06-30T18:14:27.225Z,26.38
2023-06-30T18:16:54.057Z,26.85
2023-06-30T18:19:22.806Z,27.15
2023-06-30T18:21:51.438Z,28.02
2023-06-30T18:24:19.145Z,28.15
2023-06-30T18:26:50.214Z,28.00
2023-06-30T18:29:22.694Z,28.63
2023-06-30T18:31:54.604Z,28.40
2023-06-30T18:34:22.347Z,27.05
2023-06-30T18:36:49.154Z,27.85
2023-06-30T18:39:17.778Z,30.98
2023-06-30T18:41:44.644Z,27.95
2023-06-30T18:44:11.468Z,31.95
2023-06-30T18:46:38.370Z,29.20
2023-06-30T18:49:07.728Z,30.73
2023-06-30T18:51:36.984Z,27.33
2023-06-30T18:54:03.966Z,29.27
2023-06-30T18:56:30.841Z,30.83
2023-06-30T18:59:02.523Z,29.13
2023-06-30T19:01:30.088Z,30.80
2023-06-30T19:03:57.765Z,33.38
2023-06-30T19:06:25.843Z,27.98
2023-06-30T19:08:56.434Z,32.78
2023-06-30T19:11:23.889Z,31.75
2023-06-30T19:13:51.210Z,30.15
2023-06-30T19:16:18.421Z,29.90
2023-06-30T19:18:45.565Z,31.38
2023-06-30T19:21:12.540Z,29.00
2023-06-30T19:23:41.880Z,32.33
2023-06-30T19:26:09.970Z,31.02
2023-06-30T19:28:37.483Z,31.85
2023-06-30T19:31:04.374Z,31.55
2023-06-30T19:33:32.565Z,28.30
2023-06-30T19:35:59.499Z,27.50
2023-06-30T19:38:26.632Z,29.55
2023-06-30T19:40:55.219Z,30.05
2023-06-30T19:43:22.331Z,28.30
2023-06-30T19:45:50.149Z,32.17
2023-06-30T19:48:17.728Z,31.45
2023-06-30T19:50:44.646Z,29.17
2023-06-30T19:53:11.475Z,31.38
2023-06-30T19:55:38.255Z,27.85
2023-06-30T19:58:06.100Z,25.88
2023-06-30T20:00:33.895Z,31.30
2023-06-30T20:03:01.333Z,30.58
2023-06-30T20:05:28.267Z,29.27
2023-06-30T20:07:56.264Z,30.05
2023-06-30T20:10:23.221Z,29.58
2023-06-30T20:12:50.949Z,32.42
2023-06-30T20:15:18.145Z,32.97
2023-06-30T20:17:45.364Z,29.75
2023-06-30T20:23:02.239Z,30.55
2023-06-30T20:25:29.080Z,35.22
2023-06-30T20:27:55.881Z,30.23
2023-06-30T20:30:22.748Z,33.88
2023-06-30T20:32:49.990Z,29.15
2023-06-30T20:35:20.046Z,30.17
2023-06-30T20:37:47.670Z,35.67
2023-06-30T20:40:14.474Z,34.67
2023-06-30T20:42:41.543Z,37.30
2023-06-30T20:45:08.716Z,34.03
2023-06-30T20:47:36.228Z,30.95
2023-06-30T20:50:04.385Z,36.15
2023-06-30T20:52:31.536Z,30.88
2023-06-30T20:54:58.278Z,28.70
2023-06-30T20:57:25.074Z,33.95
2023-06-30T20:59:51.870Z,28.65
2023-06-30T21:02:18.706Z,32.88
2023-06-30T21:04:45.501Z,31.30
2023-06-30T21:07:12.337Z,30.27
2023-06-30T21:09:39.107Z,32.35
2023-06-30T21:12:06.409Z,30.95
2023-06-30T21:14:33.295Z,30.23
2023-06-30T21:17:00.071Z,31.17
2023-06-30T21:19:27.078Z,29.48
2023-06-30T21:21:54.153Z,30.83
2023-06-30T21:24:20.954Z,32.08
2023-06-30T21:26:47.712Z,31.48
2023-06-30T21:29:14.457Z,30.23
2023-06-30T21:31:41.223Z,27.92
2023-06-30T21:34:08.013Z,29.23
2023-06-30T21:36:38.248Z,27.63
2023-06-30T21:39:06.694Z,26.50
2023-06-30T21:41:33.693Z,32.20
2023-06-30T21:44:00.515Z,49.33
2023-06-30T21:46:27.519Z,28.60
2023-06-30T21:48:54.396Z,30.15
2023-06-30T21:51:21.268Z,39.25
2023-06-30T21:53:48.049Z,40.75
2023-06-30T21:56:14.846Z,48.00
2023-06-30T21:58:41.721Z,49.42
2023-06-30T22:01:08.645Z,47.20
2023-06-30T22:03:35.558Z,49.45
2023-06-30T22:06:02.769Z,48.58
2023-06-30T22:08:29.924Z,50.58
2023-06-30T22:10:58.716Z,56.42
2023-06-30T22:13:25.850Z,53.28
2023-06-30T22:15:52.916Z,62.10
2023-06-30T22:18:19.824Z,56.00
2023-06-30T22:20:46.730Z,57.28
2023-06-30T22:23:13.836Z,58.83
2023-06-30T22:25:40.848Z,58.00
2023-06-30T22:28:07.798Z,55.00
2023-06-30T22:30:34.720Z,53.13
2023-06-30T22:33:01.590Z,55.50
2023-06-30T22:35:28.479Z,55.38
2023-06-30T22:37:55.277Z,53.08
2023-06-30T22:40:22.441Z,54.97
2023-06-30T22:42:49.638Z,53.25
2023-06-30T22:45:16.677Z,56.67
2023-06-30T22:47:44.223Z,61.08
2023-06-30T22:50:11.277Z,58.20
2023-06-30T22:52:39.811Z,58.20
2023-06-30T22:55:10.491Z,60.83
2023-06-30T22:57:37.617Z,57.17
2023-06-30T23:00:06.022Z,55.00
2023-06-30T23:02:33.164Z,55.90
2023-06-30T23:05:00.132Z,55.38
2023-06-30T23:07:27.151Z,53.03
2023-06-30T23:09:54.053Z,54.33
2023-06-30T23:12:20.824Z,55.28
2023-06-30T23:14:47.625Z,57.15
2023-06-30T23:17:16.895Z,59.17
2023-06-30T23:19:49.925Z,59.00
2023-06-30T23:22:18.013Z,55.40
2023-06-30T23:24:49.722Z,52.47
2023-06-30T23:27:17.773Z,54.85
2023-06-30T23:29:50.557Z,50.63
2023-06-30T23:32:20.434Z,51.88
2023-06-30T23:34:48.480Z,53.45
2023-06-30T23:37:17.876Z,50.17
2023-06-30T23:39:45.633Z,52.47
2023-06-30T23:42:12.465Z,50.40
2023-06-30T23:44:39.291Z,52.83
2023-06-30T23:47:15.422Z,53.63
2023-06-30T23:49:42.635Z,48.60
2023-06-30T23:52:09.937Z,49.08
2023-06-30T23:54:36.796Z,52.33
2023-06-30T23:57:03.981Z,52.25
2023-06-30T23:59:30.783Z,48.13
